sensor_id;sensor_type;location;lat;lon;timestamp;P1;durP1;ratioP1;P2;durP2;ratioP2
56297;SDS011;42208;6.376;-10.782;2023-06-22T00:00:19;10.90;;;4.05;;
56297;SDS011;42208;6.376;-10.782;2023-06-22T00:02:47;12.20;;;4.53;;
56297;SDS011;42208;6.376;-10.782;2023-06-22T00:05:16;10.70;;;4.78;;
56297;SDS011;42208;6.376;-10.782;2023-06-22T00:07:44;11.15;;;5.53;;
56297;SDS011;42208;6.376;-10.782;2023-06-22T00:10:13;15.70;;;4.97;;
56297;SDS011;42208;6.376;-10.782;2023-06-22T00:12:41;16.92;;;4.90;;
56297;SDS011;42208;6.376;-10.782;2023-06-22T00:15:10;17.40;;;5.55;;
56297;SDS011;42208;6.376;-10.782;2023-06-22T00:17:38;12.70;;;4.47;;
56297;SDS011;42208;6.376;-10.782;2023-06-22T00:20:07;10.52;;;3.72;;
56297;SDS011;42208;6.376;-10.782;2023-06-22T00:22:36;14.25;;;4.13;;
56297;SDS011;42208;6.376;-10.782;2023-06-22T00:25:08;15.93;;;4.00;;
56297;SDS011;42208;6.376;-10.782;2023-06-22T00:27:37;11.18;;;4.15;;
56297;SDS011;42208;6.376;-10.782;2023-06-22T00:30:06;8.75;;;3.80;;
56297;SDS011;42208;6.376;-10.782;2023-06-22T00:32:35;6.70;;;3.22;;
56297;SDS011;42208;6.376;-10.782;2023-06-22T00:35:03;15.60;;;3.67;;
56297;SDS011;42208;6.376;-10.782;2023-06-22T00:37:32;10.25;;;3.70;;
56297;SDS011;42208;6.376;-10.782;2023-06-22T00:40:01;15.07;;;4.18;;
56297;SDS011;42208;6.376;-10.782;2023-06-22T00:42:30;16.85;;;4.43;;
56297;SDS011;42208;6.376;-10.782;2023-06-22T00:44:59;12.65;;;4.43;;
56297;SDS011;42208;6.376;-10.782;2023-06-22T00:47:27;10.55;;;3.97;;
56297;SDS011;42208;6.376;-10.782;2023-06-22T00:49:56;7.47;;;3.67;;
56297;SDS011;42208;6.376;-10.782;2023-06-22T00:52:24;11.70;;;4.47;;
56297;SDS011;42208;6.376;-10.782;2023-06-22T00:54:55;16.23;;;4.43;;
56297;SDS011;42208;6.376;-10.782;2023-06-22T00:57:25;14.30;;;3.80;;
56297;SDS011;42208;6.376;-10.782;2023-06-22T00:59:54;10.48;;;4.13;;
56297;SDS011;42208;6.376;-10.782;2023-06-22T01:02:23;11.20;;;5.50;;
56297;SDS011;42208;6.376;-10.782;2023-06-22T01:04:52;11.57;;;5.00;;
56297;SDS011;42208;6.376;-10.782;2023-06-22T01:07:30;11.55;;;4.22;;
56297;SDS011;42208;6.376;-10.782;2023-06-22T01:12:51;12.27;;;3.83;;
56297;SDS011;42208;6.376;-10.782;2023-06-22T01:15:36;10.77;;;3.60;;
56297;SDS011;42208;6.376;-10.782;2023-06-22T01:18:11;7.07;;;3.42;;
56297;SDS011;42208;6.376;-10.782;2023-06-22T01:20:43;13.02;;;4.05;;
56297;SDS011;42208;6.376;-10.782;2023-06-22T01:26:15;8.95;;;3.80;;
56297;SDS011;42208;6.376;-10.782;2023-06-22T01:28:50;10.43;;;3.80;;
56297;SDS011;42208;6.376;-10.782;2023-06-22T01:31:25;14.85;;;3.88;;
56297;SDS011;42208;6.376;-10.782;2023-06-22T01:33:57;14.40;;;3.63;;
56297;SDS011;42208;6.376;-10.782;2023-06-22T01:36:29;13.27;;;3.53;;
56297;SDS011;42208;6.376;-10.782;2023-06-22T01:38:59;9.95;;;3.90;;
56297;SDS011;42208;6.376;-10.782;2023-06-22T01:41:30;17.40;;;3.38;;
56297;SDS011;42208;6.376;-10.782;2023-06-22T01:44:03;8.98;;;3.50;;
56297;SDS011;42208;6.376;-10.782;2023-06-22T01:49:03;17.08;;;3.85;;
56297;SDS011;42208;6.376;-10.782;2023-06-22T01:51:32;8.75;;;3.40;;
56297;SDS011;42208;6.376;-10.782;2023-06-22T01:54:01;8.40;;;3.75;;
56297;SDS011;42208;6.376;-10.782;2023-06-22T01:56:30;15.40;;;4.20;;
56297;SDS011;42208;6.376;-10.782;2023-06-22T01:59:03;9.10;;;4.20;;
56297;SDS011;42208;6.376;-10.782;2023-06-22T02:01:42;10.50;;;3.78;;
56297;SDS011;42208;6.376;-10.782;2023-06-22T02:04:24;9.77;;;4.15;;
56297;SDS011;42208;6.376;-10.782;2023-06-22T02:06:58;11.77;;;4.10;;
56297;SDS011;42208;6.376;-10.782;2023-06-22T02:09:29;9.70;;;3.88;;
56297;SDS011;42208;6.376;-10.782;2023-06-22T02:11:59;10.20;;;4.23;;
56297;SDS011;42208;6.376;-10.782;2023-06-22T02:14:30;10.52;;;4.15;;
56297;SDS011;42208;6.376;-10.782;2023-06-22T02:16:59;11.48;;;4.22;;
56297;SDS011;42208;6.376;-10.782;2023-06-22T02:19:27;11.80;;;4.78;;
56297;SDS011;42208;6.376;-10.782;2023-06-22T02:21:56;15.98;;;4.63;;
56297;SDS011;42208;6.376;-10.782;2023-06-22T02:24:24;13.57;;;4.70;;
56297;SDS011;42208;6.376;-10.782;2023-06-22T02:26:53;18.80;;;4.22;;
56297;SDS011;42208;6.376;-10.782;2023-06-22T02:29:21;12.43;;;4.00;;
56297;SDS011;42208;6.376;-10.782;2023-06-22T02:31:50;16.05;;;5.05;;
56297;SDS011;42208;6.376;-10.782;2023-06-22T02:34:19;13.27;;;4.05;;
56297;SDS011;42208;6.376;-10.782;2023-06-22T02:36:47;14.07;;;4.53;;
56297;SDS011;42208;6.376;-10.782;2023-06-22T02:39:18;14.32;;;4.15;;
56297;SDS011;42208;6.376;-10.782;2023-06-22T02:41:54;9.02;;;3.78;;
56297;SDS011;42208;6.376;-10.782;2023-06-22T02:44:23;7.10;;;4.00;;
56297;SDS011;42208;6.376;-10.782;2023-06-22T02:46:51;14.13;;;4.50;;
56297;SDS011;42208;6.376;-10.782;2023-06-22T02:49:20;10.90;;;4.05;;
56297;SDS011;42208;6.376;-10.782;2023-06-22T02:51:49;14.48;;;4.47;;
56297;SDS011;42208;6.376;-10.782;2023-06-22T02:54:20;17.67;;;6.30;;
56297;SDS011;42208;6.376;-10.782;2023-06-22T02:56:51;24.42;;;10.82;;
56297;SDS011;42208;6.376;-10.782;2023-06-22T02:59:21;19.23;;;8.82;;
56297;SDS011;42208;6.376;-10.782;2023-06-22T03:01:52;21.38;;;8.77;;
56297;SDS011;42208;6.376;-10.782;2023-06-22T03:04:25;16.42;;;6.25;;
56297;SDS011;42208;6.376;-10.782;2023-06-22T03:06:54;20.63;;;5.72;;
56297;SDS011;42208;6.376;-10.782;2023-06-22T03:09:22;20.10;;;6.97;;
56297;SDS011;42208;6.376;-10.782;2023-06-22T03:11:51;18.20;;;7.30;;
56297;SDS011;42208;6.376;-10.782;2023-06-22T03:14:21;21.48;;;8.45;;
56297;SDS011;42208;6.376;-10.782;2023-06-22T03:16:51;21.38;;;8.63;;
56297;SDS011;42208;6.376;-10.782;2023-06-22T03:19:20;23.40;;;9.35;;
56297;SDS011;42208;6.376;-10.782;2023-06-22T03:21:48;27.98;;;10.40;;
56297;SDS011;42208;6.376;-10.782;2023-06-22T03:24:17;19.38;;;9.38;;
56297;SDS011;42208;6.376;-10.782;2023-06-22T03:26:45;24.20;;;9.05;;
56297;SDS011;42208;6.376;-10.782;2023-06-22T03:29:14;19.15;;;9.05;;
56297;SDS011;42208;6.376;-10.782;2023-06-22T03:31:44;20.90;;;8.32;;
56297;SDS011;42208;6.376;-10.782;2023-06-22T03:34:13;20.05;;;7.07;;
56297;SDS011;42208;6.376;-10.782;2023-06-22T03:36:42;17.10;;;6.05;;
56297;SDS011;42208;6.376;-10.782;2023-06-22T03:39:11;14.32;;;5.35;;
56297;SDS011;42208;6.376;-10.782;2023-06-22T03:41:40;12.93;;;5.57;;
56297;SDS011;42208;6.376;-10.782;2023-06-22T03:44:09;9.82;;;4.78;;
56297;SDS011;42208;6.376;-10.782;2023-06-22T03:46:37;12.30;;;5.07;;
56297;SDS011;42208;6.376;-10.782;2023-06-22T03:49:06;12.80;;;5.15;;
56297;SDS011;42208;6.376;-10.782;2023-06-22T03:51:35;14.25;;;6.07;;
56297;SDS011;42208;6.376;-10.782;2023-06-22T03:54:03;16.45;;;5.40;;
56297;SDS011;42208;6.376;-10.782;2023-06-22T03:56:32;11.95;;;5.47;;
56297;SDS011;42208;6.376;-10.782;2023-06-22T03:59:00;14.63;;;6.22;;
56297;SDS011;42208;6.376;-10.782;2023-06-22T04:01:29;11.73;;;5.15;;
56297;SDS011;42208;6.376;-10.782;2023-06-22T04:03:57;11.43;;;4.60;;
56297;SDS011;42208;6.376;-10.782;2023-06-22T04:06:26;15.70;;;5.78;;
56297;SDS011;42208;6.376;-10.782;2023-06-22T04:08:54;13.43;;;5.65;;
56297;SDS011;42208;6.376;-10.782;2023-06-22T04:11:23;13.98;;;4.78;;
56297;SDS011;42208;6.376;-10.782;2023-06-22T04:13:51;12.70;;;4.15;;
56297;SDS011;42208;6.376;-10.782;2023-06-22T04:16:20;16.42;;;4.68;;
56297;SDS011;42208;6.376;-10.782;2023-06-22T04:18:48;12.65;;;4.53;;
56297;SDS011;42208;6.376;-10.782;2023-06-22T04:21:17;8.15;;;4.20;;
56297;SDS011;42208;6.376;-10.782;2023-06-22T04:23:46;11.32;;;4.82;;
56297;SDS011;42208;6.376;-10.782;2023-06-22T04:26:15;10.40;;;4.78;;
56297;SDS011;42208;6.376;-10.782;2023-06-22T04:28:43;7.90;;;4.30;;
56297;SDS011;42208;6.376;-10.782;2023-06-22T04:31:12;10.27;;;4.50;;
56297;SDS011;42208;6.376;-10.782;2023-06-22T04:33:40;11.50;;;5.43;;
56297;SDS011;42208;6.376;-10.782;2023-06-22T04:36:09;13.27;;;5.45;;
56297;SDS011;42208;6.376;-10.782;2023-06-22T04:38:37;9.38;;;5.20;;
56297;SDS011;42208;6.376;-10.782;2023-06-22T04:41:05;15.65;;;6.97;;
56297;SDS011;42208;6.376;-10.782;2023-06-22T04:43:34;11.63;;;5.30;;
56297;SDS011;42208;6.376;-10.782;2023-06-22T04:46:02;12.48;;;5.00;;
56297;SDS011;42208;6.376;-10.782;2023-06-22T04:48:31;12.38;;;4.32;;
56297;SDS011;42208;6.376;-10.782;2023-06-22T04:50:59;13.23;;;5.43;;
56297;SDS011;42208;6.376;-10.782;2023-06-22T04:53:29;16.52;;;5.53;;
56297;SDS011;42208;6.376;-10.782;2023-06-22T04:55:58;14.77;;;5.75;;
56297;SDS011;42208;6.376;-10.782;2023-06-22T04:58:26;18.73;;;5.95;;
56297;SDS011;42208;6.376;-10.782;2023-06-22T05:00:55;17.98;;;6.10;;
56297;SDS011;42208;6.376;-10.782;2023-06-22T05:03:24;13.65;;;4.95;;
56297;SDS011;42208;6.376;-10.782;2023-06-22T05:05:54;20.00;;;6.43;;
56297;SDS011;42208;6.376;-10.782;2023-06-22T05:08:22;16.63;;;6.22;;
56297;SDS011;42208;6.376;-10.782;2023-06-22T05:10:51;15.63;;;6.63;;
56297;SDS011;42208;6.376;-10.782;2023-06-22T05:13:31;12.45;;;6.20;;
56297;SDS011;42208;6.376;-10.782;2023-06-22T05:16:00;17.42;;;6.78;;
56297;SDS011;42208;6.376;-10.782;2023-06-22T05:18:30;19.63;;;6.38;;
56297;SDS011;42208;6.376;-10.782;2023-06-22T05:20:59;13.50;;;5.43;;
56297;SDS011;42208;6.376;-10.782;2023-06-22T05:23:28;17.38;;;7.50;;
56297;SDS011;42208;6.376;-10.782;2023-06-22T05:25:57;20.73;;;7.03;;
56297;SDS011;42208;6.376;-10.782;2023-06-22T05:28:25;15.40;;;5.80;;
56297;SDS011;42208;6.376;-10.782;2023-06-22T05:30:54;20.15;;;6.70;;
56297;SDS011;42208;6.376;-10.782;2023-06-22T05:33:22;20.25;;;6.93;;
56297;SDS011;42208;6.376;-10.782;2023-06-22T05:35:51;20.70;;;7.03;;
56297;SDS011;42208;6.376;-10.782;2023-06-22T05:38:20;21.30;;;7.85;;
56297;SDS011;42208;6.376;-10.782;2023-06-22T05:40:48;20.05;;;6.93;;
56297;SDS011;42208;6.376;-10.782;2023-06-22T05:43:17;17.33;;;6.20;;
56297;SDS011;42208;6.376;-10.782;2023-06-22T05:45:45;15.98;;;5.53;;
56297;SDS011;42208;6.376;-10.782;2023-06-22T05:48:14;27.25;;;6.78;;
56297;SDS011;42208;6.376;-10.782;2023-06-22T05:50:42;21.98;;;6.95;;
56297;SDS011;42208;6.376;-10.782;2023-06-22T05:53:11;18.23;;;6.32;;
56297;SDS011;42208;6.376;-10.782;2023-06-22T05:55:39;15.10;;;5.60;;
56297;SDS011;42208;6.376;-10.782;2023-06-22T05:58:08;25.27;;;6.53;;
56297;SDS011;42208;6.376;-10.782;2023-06-22T06:00:36;15.10;;;5.85;;
56297;SDS011;42208;6.376;-10.782;2023-06-22T06:03:06;14.93;;;6.05;;
56297;SDS011;42208;6.376;-10.782;2023-06-22T06:05:35;20.92;;;5.60;;
56297;SDS011;42208;6.376;-10.782;2023-06-22T06:08:05;15.27;;;5.72;;
56297;SDS011;42208;6.376;-10.782;2023-06-22T06:10:34;15.63;;;5.95;;
56297;SDS011;42208;6.376;-10.782;2023-06-22T06:13:03;11.52;;;5.95;;
56297;SDS011;42208;6.376;-10.782;2023-06-22T06:15:32;14.15;;;5.97;;
56297;SDS011;42208;6.376;-10.782;2023-06-22T06:18:02;17.65;;;6.28;;
56297;SDS011;42208;6.376;-10.782;2023-06-22T06:20:31;27.05;;;8.85;;
56297;SDS011;42208;6.376;-10.782;2023-06-22T06:23:00;45.13;;;17.00;;
56297;SDS011;42208;6.376;-10.782;2023-06-22T06:25:29;31.30;;;10.63;;
56297;SDS011;42208;6.376;-10.782;2023-06-22T06:27:57;23.00;;;5.00;;
56297;SDS011;42208;6.376;-10.782;2023-06-22T06:30:28;31.13;;;5.55;;
56297;SDS011;42208;6.376;-10.782;2023-06-22T06:32:58;26.73;;;4.43;;
56297;SDS011;42208;6.376;-10.782;2023-06-22T06:35:26;26.33;;;4.55;;
56297;SDS011;42208;6.376;-10.782;2023-06-22T06:37:55;20.15;;;4.97;;
56297;SDS011;42208;6.376;-10.782;2023-06-22T06:40:24;21.00;;;5.32;;
56297;SDS011;42208;6.376;-10.782;2023-06-22T06:42:54;29.30;;;5.32;;
56297;SDS011;42208;6.376;-10.782;2023-06-22T06:45:23;12.90;;;4.03;;
56297;SDS011;42208;6.376;-10.782;2023-06-22T06:47:53;15.13;;;3.40;;
56297;SDS011;42208;6.376;-10.782;2023-06-22T06:50:21;12.82;;;4.10;;
56297;SDS011;42208;6.376;-10.782;2023-06-22T06:52:50;18.25;;;5.00;;
56297;SDS011;42208;6.376;-10.782;2023-06-22T06:55:19;15.07;;;5.80;;
56297;SDS011;42208;6.376;-10.782;2023-06-22T06:57:47;18.48;;;6.70;;
56297;SDS011;42208;6.376;-10.782;2023-06-22T07:00:16;70.63;;;30.85;;
56297;SDS011;42208;6.376;-10.782;2023-06-22T07:02:45;44.63;;;20.33;;
56297;SDS011;42208;6.376;-10.782;2023-06-22T07:05:13;43.92;;;17.58;;
56297;SDS011;42208;6.376;-10.782;2023-06-22T07:07:42;33.05;;;9.82;;
56297;SDS011;42208;6.376;-10.782;2023-06-22T07:12:06;27.95;;;6.40;;
56297;SDS011;42208;6.376;-10.782;2023-06-22T07:14:35;29.63;;;6.80;;
56297;SDS011;42208;6.376;-10.782;2023-06-22T07:17:04;27.77;;;6.90;;
56297;SDS011;42208;6.376;-10.782;2023-06-22T07:19:32;27.17;;;5.88;;
56297;SDS011;42208;6.376;-10.782;2023-06-22T07:22:01;20.58;;;5.03;;
56297;SDS011;42208;6.376;-10.782;2023-06-22T07:24:30;28.83;;;9.57;;
56297;SDS011;42208;6.376;-10.782;2023-06-22T07:26:58;37.92;;;15.55;;
56297;SDS011;42208;6.376;-10.782;2023-06-22T07:29:27;51.08;;;18.92;;
56297;SDS011;42208;6.376;-10.782;2023-06-22T07:31:55;31.40;;;12.20;;
56297;SDS011;42208;6.376;-10.782;2023-06-22T07:34:24;29.65;;;8.48;;
56297;SDS011;42208;6.376;-10.782;2023-06-22T07:36:52;21.33;;;8.10;;
56297;SDS011;42208;6.376;-10.782;2023-06-22T07:39:21;18.30;;;7.10;;
56297;SDS011;42208;6.376;-10.782;2023-06-22T07:41:49;18.90;;;8.13;;
56297;SDS011;42208;6.376;-10.782;2023-06-22T07:44:18;20.48;;;8.10;;
56297;SDS011;42208;6.376;-10.782;2023-06-22T07:46:46;16.77;;;7.53;;
56297;SDS011;42208;6.376;-10.782;2023-06-22T07:49:16;23.98;;;7.88;;
56297;SDS011;42208;6.376;-10.782;2023-06-22T07:51:45;14.77;;;6.85;;
56297;SDS011;42208;6.376;-10.782;2023-06-22T07:54:13;10.85;;;5.68;;
56297;SDS011;42208;6.376;-10.782;2023-06-22T07:56:42;9.38;;;4.00;;
56297;SDS011;42208;6.376;-10.782;2023-06-22T07:59:10;10.05;;;4.38;;
56297;SDS011;42208;6.376;-10.782;2023-06-22T08:01:39;9.77;;;4.30;;
56297;SDS011;42208;6.376;-10.782;2023-06-22T08:04:07;11.18;;;4.90;;
56297;SDS011;42208;6.376;-10.782;2023-06-22T08:06:36;6.65;;;4.03;;
56297;SDS011;42208;6.376;-10.782;2023-06-22T08:09:04;6.80;;;3.55;;
56297;SDS011;42208;6.376;-10.782;2023-06-22T08:11:33;4.45;;;3.47;;
56297;SDS011;42208;6.376;-10.782;2023-06-22T08:14:01;9.20;;;4.60;;
56297;SDS011;42208;6.376;-10.782;2023-06-22T08:16:30;13.75;;;5.20;;
56297;SDS011;42208;6.376;-10.782;2023-06-22T08:18:59;10.48;;;5.38;;
56297;SDS011;42208;6.376;-10.782;2023-06-22T08:21:27;15.55;;;6.32;;
56297;SDS011;42208;6.376;-10.782;2023-06-22T08:23:56;17.52;;;7.15;;
56297;SDS011;42208;6.376;-10.782;2023-06-22T08:26:24;24.50;;;14.70;;
56297;SDS011;42208;6.376;-10.782;2023-06-22T08:28:53;22.30;;;11.02;;
56297;SDS011;42208;6.376;-10.782;2023-06-22T08:31:21;20.20;;;8.52;;
56297;SDS011;42208;6.376;-10.782;2023-06-22T08:33:50;19.63;;;6.47;;
56297;SDS011;42208;6.376;-10.782;2023-06-22T08:36:18;12.65;;;6.03;;
56297;SDS011;42208;6.376;-10.782;2023-06-22T08:38:47;15.75;;;5.07;;
56297;SDS011;42208;6.376;-10.782;2023-06-22T08:41:15;11.07;;;3.45;;
56297;SDS011;42208;6.376;-10.782;2023-06-22T08:43:45;13.18;;;4.45;;
56297;SDS011;42208;6.376;-10.782;2023-06-22T08:46:13;13.95;;;4.18;;
56297;SDS011;42208;6.376;-10.782;2023-06-22T08:48:42;9.68;;;3.08;;
56297;SDS011;42208;6.376;-10.782;2023-06-22T08:51:10;11.98;;;3.80;;
56297;SDS011;42208;6.376;-10.782;2023-06-22T08:53:42;14.32;;;3.75;;
56297;SDS011;42208;6.376;-10.782;2023-06-22T08:56:11;7.78;;;2.95;;
56297;SDS011;42208;6.376;-10.782;2023-06-22T08:58:39;6.00;;;2.85;;
56297;SDS011;42208;6.376;-10.782;2023-06-22T09:01:08;10.80;;;2.88;;
56297;SDS011;42208;6.376;-10.782;2023-06-22T09:03:36;10.43;;;3.20;;
56297;SDS011;42208;6.376;-10.782;2023-06-22T09:06:05;7.57;;;2.97;;
56297;SDS011;42208;6.376;-10.782;2023-06-22T09:08:35;11.18;;;3.33;;
56297;SDS011;42208;6.376;-10.782;2023-06-22T09:11:04;11.20;;;2.92;;
56297;SDS011;42208;6.376;-10.782;2023-06-22T09:13:33;11.40;;;2.92;;
56297;SDS011;42208;6.376;-10.782;2023-06-22T09:16:02;8.18;;;2.92;;
56297;SDS011;42208;6.376;-10.782;2023-06-22T09:18:30;16.67;;;5.00;;
56297;SDS011;42208;6.376;-10.782;2023-06-22T09:20:59;43.90;;;13.25;;
56297;SDS011;42208;6.376;-10.782;2023-06-22T09:23:28;11.90;;;3.58;;
56297;SDS011;42208;6.376;-10.782;2023-06-22T09:25:57;8.63;;;3.55;;
56297;SDS011;42208;6.376;-10.782;2023-06-22T09:28:26;8.93;;;4.45;;
56297;SDS011;42208;6.376;-10.782;2023-06-22T09:30:54;10.98;;;3.13;;
56297;SDS011;42208;6.376;-10.782;2023-06-22T09:33:24;11.65;;;3.30;;
56297;SDS011;42208;6.376;-10.782;2023-06-22T09:35:56;8.55;;;2.88;;
56297;SDS011;42208;6.376;-10.782;2023-06-22T09:38:30;12.15;;;3.63;;
56297;SDS011;42208;6.376;-10.782;2023-06-22T09:40:59;5.75;;;2.92;;
56297;SDS011;42208;6.376;-10.782;2023-06-22T09:43:28;8.60;;;2.65;;
56297;SDS011;42208;6.376;-10.782;2023-06-22T09:46:00;5.07;;;2.38;;
56297;SDS011;42208;6.376;-10.782;2023-06-22T09:48:28;4.45;;;2.30;;
56297;SDS011;42208;6.376;-10.782;2023-06-22T09:50:58;3.80;;;1.95;;
56297;SDS011;42208;6.376;-10.782;2023-06-22T09:53:27;3.28;;;1.58;;
56297;SDS011;42208;6.376;-10.782;2023-06-22T09:55:58;7.78;;;1.85;;
56297;SDS011;42208;6.376;-10.782;2023-06-22T09:58:27;3.65;;;2.05;;
56297;SDS011;42208;6.376;-10.782;2023-06-22T10:00:56;2.83;;;2.17;;
56297;SDS011;42208;6.376;-10.782;2023-06-22T10:03:25;6.68;;;2.85;;
56297;SDS011;42208;6.376;-10.782;2023-06-22T10:05:53;7.60;;;4.40;;
56297;SDS011;42208;6.376;-10.782;2023-06-22T10:08:23;4.93;;;2.22;;
56297;SDS011;42208;6.376;-10.782;2023-06-22T10:10:52;5.22;;;2.25;;
56297;SDS011;42208;6.376;-10.782;2023-06-22T10:13:20;13.07;;;2.08;;
56297;SDS011;42208;6.376;-10.782;2023-06-22T10:15:49;5.50;;;1.92;;
56297;SDS011;42208;6.376;-10.782;2023-06-22T10:18:19;6.95;;;2.90;;
56297;SDS011;42208;6.376;-10.782;2023-06-22T10:20:50;6.05;;;2.65;;
56297;SDS011;42208;6.376;-10.782;2023-06-22T10:23:19;6.13;;;2.30;;
56297;SDS011;42208;6.376;-10.782;2023-06-22T10:25:48;9.65;;;1.73;;
56297;SDS011;42208;6.376;-10.782;2023-06-22T10:28:17;12.77;;;2.65;;
56297;SDS011;42208;6.376;-10.782;2023-06-22T10:30:45;5.90;;;2.30;;
56297;SDS011;42208;6.376;-10.782;2023-06-22T10:33:14;6.38;;;3.15;;
56297;SDS011;42208;6.376;-10.782;2023-06-22T10:35:42;20.83;;;10.70;;
56297;SDS011;42208;6.376;-10.782;2023-06-22T10:38:11;8.57;;;3.80;;
56297;SDS011;42208;6.376;-10.782;2023-06-22T10:40:39;12.07;;;3.88;;
56297;SDS011;42208;6.376;-10.782;2023-06-22T10:43:08;9.23;;;2.60;;
56297;SDS011;42208;6.376;-10.782;2023-06-22T10:45:37;7.63;;;3.13;;
56297;SDS011;42208;6.376;-10.782;2023-06-22T10:48:06;7.18;;;2.92;;
56297;SDS011;42208;6.376;-10.782;2023-06-22T10:50:36;9.98;;;3.20;;
56297;SDS011;42208;6.376;-10.782;2023-06-22T10:53:05;7.65;;;2.40;;
56297;SDS011;42208;6.376;-10.782;2023-06-22T10:55:33;9.77;;;2.92;;
56297;SDS011;42208;6.376;-10.782;2023-06-22T10:58:21;5.05;;;2.35;;
56297;SDS011;42208;6.376;-10.782;2023-06-22T11:00:50;4.60;;;2.15;;
56297;SDS011;42208;6.376;-10.782;2023-06-22T11:03:18;13.98;;;2.28;;
56297;SDS011;42208;6.376;-10.782;2023-06-22T11:05:47;9.05;;;2.83;;
56297;SDS011;42208;6.376;-10.782;2023-06-22T11:08:16;9.82;;;3.38;;
56297;SDS011;42208;6.376;-10.782;2023-06-22T11:10:44;11.57;;;4.20;;
56297;SDS011;42208;6.376;-10.782;2023-06-22T11:13:13;12.10;;;2.97;;
56297;SDS011;42208;6.376;-10.782;2023-06-22T11:15:41;4.05;;;2.15;;
56297;SDS011;42208;6.376;-10.782;2023-06-22T11:18:10;9.63;;;2.70;;
56297;SDS011;42208;6.376;-10.782;2023-06-22T11:20:38;8.45;;;2.90;;
56297;SDS011;42208;6.376;-10.782;2023-06-22T11:23:07;8.63;;;2.67;;
56297;SDS011;42208;6.376;-10.782;2023-06-22T11:25:35;8.82;;;2.40;;
56297;SDS011;42208;6.376;-10.782;2023-06-22T11:28:04;5.05;;;1.70;;
56297;SDS011;42208;6.376;-10.782;2023-06-22T11:30:32;6.57;;;1.92;;
56297;SDS011;42208;6.376;-10.782;2023-06-22T11:33:01;6.05;;;2.08;;
56297;SDS011;42208;6.376;-10.782;2023-06-22T11:35:29;11.75;;;1.70;;
56297;SDS011;42208;6.376;-10.782;2023-06-22T11:37:58;7.30;;;2.13;;
56297;SDS011;42208;6.376;-10.782;2023-06-22T11:40:27;7.22;;;1.65;;
56297;SDS011;42208;6.376;-10.782;2023-06-22T11:42:59;4.35;;;1.80;;
56297;SDS011;42208;6.376;-10.782;2023-06-22T11:45:27;8.73;;;2.05;;
56297;SDS011;42208;6.376;-10.782;2023-06-22T11:47:56;5.75;;;2.58;;
56297;SDS011;42208;6.376;-10.782;2023-06-22T11:50:25;8.57;;;2.63;;
56297;SDS011;42208;6.376;-10.782;2023-06-22T11:52:54;11.20;;;2.72;;
56297;SDS011;42208;6.376;-10.782;2023-06-22T11:55:24;6.78;;;1.80;;
56297;SDS011;42208;6.376;-10.782;2023-06-22T11:57:56;6.72;;;2.15;;
56297;SDS011;42208;6.376;-10.782;2023-06-22T12:00:26;7.22;;;2.55;;
56297;SDS011;42208;6.376;-10.782;2023-06-22T12:03:11;7.03;;;2.92;;
56297;SDS011;42208;6.376;-10.782;2023-06-22T12:05:40;6.00;;;2.50;;
56297;SDS011;42208;6.376;-10.782;2023-06-22T12:08:09;7.50;;;3.65;;
56297;SDS011;42208;6.376;-10.782;2023-06-22T12:10:38;10.88;;;3.42;;
56297;SDS011;42208;6.376;-10.782;2023-06-22T12:13:12;5.20;;;1.73;;
56297;SDS011;42208;6.376;-10.782;2023-06-22T12:15:41;5.95;;;2.40;;
56297;SDS011;42208;6.376;-10.782;2023-06-22T12:18:10;9.15;;;2.05;;
56297;SDS011;42208;6.376;-10.782;2023-06-22T12:20:40;5.50;;;2.58;;
56297;SDS011;42208;6.376;-10.782;2023-06-22T12:23:09;4.78;;;3.00;;
56297;SDS011;42208;6.376;-10.782;2023-06-22T12:25:38;7.75;;;1.83;;
56297;SDS011;42208;6.376;-10.782;2023-06-22T12:28:08;2.85;;;1.30;;
56297;SDS011;42208;6.376;-10.782;2023-06-22T12:30:36;7.68;;;2.83;;
56297;SDS011;42208;6.376;-10.782;2023-06-22T12:33:05;6.97;;;3.67;;
56297;SDS011;42208;6.376;-10.782;2023-06-22T12:35:34;11.75;;;3.83;;
56297;SDS011;42208;6.376;-10.782;2023-06-22T12:38:02;12.10;;;3.58;;
56297;SDS011;42208;6.376;-10.782;2023-06-22T12:40:31;12.80;;;3.88;;
56297;SDS011;42208;6.376;-10.782;2023-06-22T12:43:00;7.72;;;3.63;;
56297;SDS011;42208;6.376;-10.782;2023-06-22T12:45:28;8.77;;;3.10;;
56297;SDS011;42208;6.376;-10.782;2023-06-22T12:47:57;7.95;;;4.07;;
56297;SDS011;42208;6.376;-10.782;2023-06-22T12:50:26;12.43;;;4.28;;
56297;SDS011;42208;6.376;-10.782;2023-06-22T12:52:55;15.13;;;5.18;;
56297;SDS011;42208;6.376;-10.782;2023-06-22T12:55:23;7.15;;;2.38;;
56297;SDS011;42208;6.376;-10.782;2023-06-22T12:57:52;8.10;;;2.67;;
56297;SDS011;42208;6.376;-10.782;2023-06-22T13:00:26;8.55;;;2.15;;
56297;SDS011;42208;6.376;-10.782;2023-06-22T13:02:56;15.45;;;5.18;;
56297;SDS011;42208;6.376;-10.782;2023-06-22T13:05:26;3.05;;;1.50;;
56297;SDS011;42208;6.376;-10.782;2023-06-22T13:07:54;4.90;;;1.60;;
56297;SDS011;42208;6.376;-10.782;2023-06-22T13:10:23;8.57;;;2.80;;
56297;SDS011;42208;6.376;-10.782;2023-06-22T13:12:51;14.68;;;6.15;;
56297;SDS011;42208;6.376;-10.782;2023-06-22T13:15:19;13.70;;;3.97;;
56297;SDS011;42208;6.376;-10.782;2023-06-22T13:17:48;5.65;;;2.35;;
56297;SDS011;42208;6.376;-10.782;2023-06-22T13:20:24;15.70;;;5.70;;
56297;SDS011;42208;6.376;-10.782;2023-06-22T13:22:52;8.27;;;4.05;;
56297;SDS011;42208;6.376;-10.782;2023-06-22T13:25:21;5.57;;;2.45;;
56297;SDS011;42208;6.376;-10.782;2023-06-22T13:27:49;6.50;;;2.30;;
56297;SDS011;42208;6.376;-10.782;2023-06-22T13:30:18;7.22;;;3.00;;
56297;SDS011;42208;6.376;-10.782;2023-06-22T13:32:46;9.18;;;3.10;;
56297;SDS011;42208;6.376;-10.782;2023-06-22T13:35:15;3.97;;;2.60;;
56297;SDS011;42208;6.376;-10.782;2023-06-22T13:37:44;15.32;;;3.15;;
56297;SDS011;42208;6.376;-10.782;2023-06-22T13:40:13;20.40;;;7.63;;
56297;SDS011;42208;6.376;-10.782;2023-06-22T13:42:43;13.98;;;8.02;;
56297;SDS011;42208;6.376;-10.782;2023-06-22T13:45:12;12.90;;;3.20;;
56297;SDS011;42208;6.376;-10.782;2023-06-22T13:47:40;7.70;;;3.58;;
56297;SDS011;42208;6.376;-10.782;2023-06-22T13:50:10;10.20;;;2.50;;
56297;SDS011;42208;6.376;-10.782;2023-06-22T13:52:39;6.38;;;1.88;;
56297;SDS011;42208;6.376;-10.782;2023-06-22T13:55:07;10.68;;;3.30;;
56297;SDS011;42208;6.376;-10.782;2023-06-22T13:57:36;17.42;;;3.22;;
56297;SDS011;42208;6.376;-10.782;2023-06-22T14:00:05;28.77;;;3.40;;
56297;SDS011;42208;6.376;-10.782;2023-06-22T14:02:38;13.10;;;2.30;;
56297;SDS011;42208;6.376;-10.782;2023-06-22T14:05:07;11.77;;;2.92;;
56297;SDS011;42208;6.376;-10.782;2023-06-22T14:07:35;3.90;;;2.00;;
56297;SDS011;42208;6.376;-10.782;2023-06-22T14:10:04;6.72;;;1.90;;
56297;SDS011;42208;6.376;-10.782;2023-06-22T14:12:33;6.13;;;2.40;;
56297;SDS011;42208;6.376;-10.782;2023-06-22T14:15:04;9.43;;;3.00;;
56297;SDS011;42208;6.376;-10.782;2023-06-22T14:17:34;4.57;;;2.20;;
56297;SDS011;42208;6.376;-10.782;2023-06-22T14:20:03;11.88;;;3.10;;
56297;SDS011;42208;6.376;-10.782;2023-06-22T14:22:35;14.13;;;6.57;;
56297;SDS011;42208;6.376;-10.782;2023-06-22T14:25:04;8.20;;;2.78;;
56297;SDS011;42208;6.376;-10.782;2023-06-22T14:27:33;8.60;;;1.90;;
56297;SDS011;42208;6.376;-10.782;2023-06-22T14:30:02;13.73;;;3.20;;
56297;SDS011;42208;6.376;-10.782;2023-06-22T14:32:33;6.23;;;2.03;;
56297;SDS011;42208;6.376;-10.782;2023-06-22T14:35:02;6.60;;;1.98;;
56297;SDS011;42208;6.376;-10.782;2023-06-22T14:37:31;5.22;;;1.60;;
56297;SDS011;42208;6.376;-10.782;2023-06-22T14:39:59;7.75;;;2.10;;
56297;SDS011;42208;6.376;-10.782;2023-06-22T14:42:28;10.10;;;2.05;;
56297;SDS011;42208;6.376;-10.782;2023-06-22T14:44:57;5.10;;;2.33;;
56297;SDS011;42208;6.376;-10.782;2023-06-22T14:47:25;13.50;;;2.70;;